Time;durP1;ratioP1;P1;durP2;ratioP2;P2;SDS_P1;SDS_P2;PMS_P1;PMS_P2;Temp;Humidity;BMP_temperature;BMP_pressure;BME280_temperature;BME280_humidity;BME280_pressure;Samples;Min_cycle;Max_cycle;Signal;HPM_P1;HPM_P2
2020/12/12 00:01:40;;;;;;;6.23;4.00;;;3.10;99.90;;;;;;5034586;28;20452;-87
2020/12/12 00:04:07;;;;;;;4.30;3.30;;;3.10;99.90;;;;;;5034805;28;20962;-87
2020/12/12 00:06:33;;;;;;;4.20;3.33;;;3.00;99.90;;;;;;5014381;28;20446;-93
2020/12/12 00:09:02;;;;;;;3.30;2.60;;;3.00;99.90;;;;;;5014632;28;20496;-89
2020/12/12 00:11:29;;;;;;;4.70;4.20;;;3.20;99.90;;;;;;5014561;28;21013;-86
2020/12/12 00:13:55;;;;;;;5.27;3.90;;;3.30;99.90;;;;;;5014761;28;20457;-87
2020/12/12 00:16:23;;;;;;;6.60;5.03;;;3.20;99.90;;;;;;5014890;28;20447;-87
2020/12/12 00:18:50;;;;;;;7.20;4.93;;;3.20;99.90;;;;;;5009668;28;20463;-91
2020/12/12 00:21:21;;;;;;;6.30;4.80;;;3.10;99.90;;;;;;5010598;28;20844;-88
2020/12/12 00:23:48;;;;;;;9.10;4.97;;;3.20;99.90;;;;;;5017363;28;20460;-89
2020/12/12 00:26:18;;;;;;;6.50;3.70;;;3.40;99.90;;;;;;5015282;28;20948;-88
2020/12/12 00:28:45;;;;;;;6.33;4.23;;;3.40;99.90;;;;;;5017324;28;20447;-88
2020/12/12 00:31:14;;;;;;;8.97;5.40;;;3.40;99.90;;;;;;5011081;28;20487;-90
2020/12/12 00:33:41;;;;;;;6.00;4.97;;;3.20;99.90;;;;;;4961388;28;20534;-88
2020/12/12 00:36:07;;;;;;;5.93;4.00;;;3.30;99.90;;;;;;5013591;28;20460;-85
2020/12/12 00:38:34;;;;;;;4.03;2.37;;;;;;;;;;5012890;28;20475;-87
2020/12/12 00:41:00;;;;;;;6.80;3.87;;;;;;;;;;5014596;28;20469;-88
2020/12/12 00:43:27;;;;;;;6.30;4.03;;;3.10;99.90;;;;;;5013922;28;20494;-86
2020/12/12 00:45:54;;;;;;;5.93;4.30;;;3.40;99.90;;;;;;5014288;28;20463;-86
2020/12/12 00:48:20;;;;;;;5.03;3.33;;;;;;;;;;5013610;28;20457;-89
2020/12/12 00:50:47;;;;;;;8.17;4.90;;;3.40;99.90;;;;;;5014043;28;20459;-90
2020/12/12 00:53:14;;;;;;;3.13;2.57;;;;;;;;;;5013946;28;20495;-88
2020/12/12 00:55:41;;;;;;;3.27;1.83;;;;;;;;;;5013908;28;20513;-90
2020/12/12 00:58:07;;;;;;;4.43;3.30;;;3.40;99.90;;;;;;5014081;28;20464;-87
2020/12/12 01:00:33;;;;;;;3.50;2.50;;;3.40;99.90;;;;;;5013991;28;20464;-88
2020/12/12 01:03:02;;;;;;;9.30;3.77;;;3.60;99.90;;;;;;5013658;28;20807;-91
2020/12/12 01:05:28;;;;;;;4.03;3.50;;;3.30;99.90;;;;;;5012902;28;20462;-88
2020/12/12 01:07:55;;;;;;;2.40;2.20;;;2.90;99.90;;;;;;5013870;28;20783;-90
2020/12/12 01:10:21;;;;;;;4.97;4.07;;;3.70;99.90;;;;;;5008578;28;20475;-88
2020/12/12 01:12:48;;;;;;;8.73;3.20;;;3.50;99.90;;;;;;5013896;28;20526;-88
2020/12/12 01:15:14;;;;;;;8.40;4.03;;;3.80;99.90;;;;;;5013773;28;20466;-87
2020/12/12 01:17:40;;;;;;;5.80;4.20;;;3.20;99.90;;;;;;5014190;28;20531;-91
2020/12/12 01:20:07;;;;;;;5.57;3.47;;;3.60;99.90;;;;;;5008781;28;20455;-87
2020/12/12 01:22:36;;;;;;;7.13;5.07;;;3.40;99.90;;;;;;5012777;28;20442;-88
2020/12/12 01:25:04;;;;;;;6.47;5.10;;;3.60;99.90;;;;;;5013830;28;20801;-90
2020/12/12 01:27:30;;;;;;;6.43;4.30;;;3.30;99.90;;;;;;5013566;28;20799;-89
2020/12/12 01:29:57;;;;;;;8.30;5.23;;;3.50;99.90;;;;;;5013675;28;20813;-88
2020/12/12 01:32:24;;;;;;;5.50;4.03;;;3.20;99.90;;;;;;5010562;28;21022;-88
2020/12/12 01:34:50;;;;;;;6.83;4.67;;;3.30;99.90;;;;;;5012063;28;20452;-88
2020/12/12 01:37:17;;;;;;;9.43;5.60;;;2.80;99.90;;;;;;5012455;28;20547;-92
2020/12/12 01:39:44;;;;;;;3.33;2.97;;;3.30;99.90;;;;;;5009047;28;20449;-88
2020/12/12 01:42:10;;;;;;;6.03;4.87;;;3.70;99.90;;;;;;5013589;28;20441;-91
2020/12/12 01:44:36;;;;;;;6.83;5.10;;;3.20;99.90;;;;;;5013612;28;20438;-89
2020/12/12 01:47:03;;;;;;;1.47;1.27;;;3.30;99.90;;;;;;5013828;28;20446;-88
2020/12/12 01:49:30;;;;;;;7.27;5.30;;;3.20;99.90;;;;;;5013554;28;20459;-89
2020/12/12 01:51:56;;;;;;;4.40;3.10;;;3.10;99.90;;;;;;5013145;28;20488;-88
2020/12/12 01:54:23;;;;;;;9.13;5.07;;;3.30;99.90;;;;;;5013756;28;20468;-87
2020/12/12 01:56:53;;;;;;;7.60;3.70;;;3.10;99.90;;;;;;5013908;28;20451;-89
2020/12/12 01:59:20;;;;;;;5.83;4.90;;;3.30;99.90;;;;;;5008299;28;20831;-89
2020/12/12 02:01:51;;;;;;;5.30;4.50;;;3.10;99.90;;;;;;5015913;28;20458;-90
2020/12/12 02:04:21;;;;;;;6.47;4.70;;;2.40;99.90;;;;;;5011624;28;20451;-90
2020/12/12 02:06:48;;;;;;;6.23;3.83;;;;;;;;;;5012802;28;20441;-87
2020/12/12 02:09:15;;;;;;;4.57;3.93;;;3.00;99.90;;;;;;5017615;28;20476;-88
2020/12/12 02:11:42;;;;;;;5.47;4.33;;;3.00;99.90;;;;;;5014358;28;20471;-89
2020/12/12 02:14:10;;;;;;;5.50;4.00;;;2.90;99.90;;;;;;5017167;28;20507;-88
2020/12/12 02:16:55;;;;;;;6.70;4.57;;;3.10;99.90;;;;;;5017105;28;20807;-90
2020/12/12 02:19:21;;;;;;;2.70;1.77;;;3.00;99.90;;;;;;5015626;28;20445;-89
2020/12/12 02:21:53;;;;;;;5.97;3.13;;;3.20;99.90;;;;;;5016259;28;20463;-88
2020/12/12 02:24:20;;;;;;;5.40;4.30;;;;;;;;;;5016987;28;20455;-88
2020/12/12 02:26:47;;;;;;;5.00;3.17;;;2.70;99.90;;;;;;5016984;28;20441;-91
2020/12/12 02:29:13;;;;;;;7.20;4.50;;;;;;;;;;5013772;28;20939;-89
2020/12/12 02:31:40;;;;;;;6.40;4.50;;;3.00;99.90;;;;;;5016886;28;20511;-89
2020/12/12 02:34:07;;;;;;;7.20;5.00;;;;;;;;;;5017099;28;20449;-88
2020/12/12 02:36:35;;;;;;;7.03;4.63;;;3.20;99.90;;;;;;5015546;28;20444;-87
2020/12/12 02:39:03;;;;;;;6.60;5.37;;;3.20;99.90;;;;;;5017064;28;20459;-92
2020/12/12 02:41:29;;;;;;;7.43;5.30;;;3.40;99.90;;;;;;5016961;28;20438;-89
2020/12/12 02:43:55;;;;;;;7.90;6.10;;;3.20;99.90;;;;;;5016908;28;20449;-88
2020/12/12 02:46:22;;;;;;;8.33;5.33;;;3.10;99.90;;;;;;5016836;28;20444;-90
2020/12/12 02:48:49;;;;;;;9.07;5.80;;;3.20;99.90;;;;;;5022655;28;20450;-90
2020/12/12 02:51:16;;;;;;;7.80;6.03;;;3.40;99.90;;;;;;5018509;28;20460;-89
2020/12/12 02:53:43;;;;;;;8.20;5.93;;;3.50;99.90;;;;;;5016787;28;20503;-89
2020/12/12 02:56:12;;;;;;;10.17;5.40;;;3.60;99.90;;;;;;5016635;28;21002;-89
2020/12/12 02:58:39;;;;;;;8.10;5.43;;;;;;;;;;5017147;28;20445;-90
2020/12/12 03:01:05;;;;;;;8.47;6.33;;;3.30;99.90;;;;;;5016278;28;20447;-89
2020/12/12 03:03:32;;;;;;;6.30;5.50;;;;;;;;;;5016418;28;20454;-90
2020/12/12 03:05:58;;;;;;;8.63;5.43;;;3.30;99.90;;;;;;5015166;28;20451;-86
2020/12/12 03:08:24;;;;;;;8.40;6.37;;;3.30;99.90;;;;;;5013333;28;20476;-90
2020/12/12 03:10:50;;;;;;;5.77;5.17;;;3.50;99.90;;;;;;5016365;28;20465;-87
2020/12/12 03:13:18;;;;;;;7.17;5.50;;;4.10;99.90;;;;;;5015650;28;20503;-89
2020/12/12 03:15:44;;;;;;;9.43;6.33;;;;;;;;;;5013791;28;20533;-91
2020/12/12 03:18:11;;;;;;;7.20;5.77;;;3.50;99.90;;;;;;5016237;28;20929;-89
2020/12/12 03:20:37;;;;;;;7.93;5.97;;;3.30;99.90;;;;;;5009890;28;21256;-91
2020/12/12 03:23:04;;;;;;;7.53;5.67;;;3.40;99.90;;;;;;5018389;28;20451;-89
2020/12/12 03:25:30;;;;;;;9.10;7.00;;;;;;;;;;5016006;28;20456;-88
2020/12/12 03:27:57;;;;;;;7.90;6.13;;;;;;;;;;5015991;28;20958;-91
2020/12/12 03:30:24;;;;;;;8.60;6.03;;;3.30;99.90;;;;;;5015692;28;20819;-88
2020/12/12 03:32:50;;;;;;;7.93;5.30;;;3.40;99.90;;;;;;5016080;28;20492;-91
2020/12/12 03:35:17;;;;;;;9.00;6.80;;;3.30;99.90;;;;;;5015272;28;20460;-87
2020/12/12 03:37:43;;;;;;;8.30;6.67;;;3.30;99.90;;;;;;5015576;28;20459;-89
2020/12/12 03:40:09;;;;;;;10.43;7.13;;;3.60;99.90;;;;;;5015624;28;20456;-87
2020/12/12 03:42:35;;;;;;;12.20;8.27;;;3.30;99.90;;;;;;5015590;28;20451;-87
2020/12/12 03:45:02;;;;;;;8.20;6.77;;;3.60;99.90;;;;;;5015394;28;20441;-87
2020/12/12 03:47:29;;;;;;;11.97;8.07;;;3.60;99.90;;;;;;5012487;28;20453;-86
2020/12/12 03:49:56;;;;;;;9.00;5.80;;;3.70;99.90;;;;;;5015054;28;20449;-88
2020/12/12 03:52:22;;;;;;;9.07;6.50;;;3.40;99.90;;;;;;5014181;28;20495;-88
2020/12/12 03:54:48;;;;;;;11.90;7.10;;;3.50;99.90;;;;;;5015450;28;20453;-90
2020/12/12 03:57:15;;;;;;;10.17;7.10;;;3.50;99.90;;;;;;5015375;28;20441;-88
2020/12/12 03:59:41;;;;;;;10.23;6.73;;;3.40;99.90;;;;;;5015333;28;20454;-87
2020/12/12 04:02:07;;;;;;;10.20;6.40;;;;;;;;;;5009738;28;20450;-88
2020/12/12 04:04:35;;;;;;;11.37;6.30;;;3.50;99.90;;;;;;5015110;28;20957;-88
2020/12/12 04:07:01;;;;;;;9.63;7.10;;;3.50;99.90;;;;;;5008463;28;20442;-88
2020/12/12 04:09:27;;;;;;;8.40;6.10;;;3.50;99.90;;;;;;5014802;28;20489;-87
2020/12/12 04:11:53;;;;;;;8.07;6.50;;;3.50;99.90;;;;;;5014940;28;20835;-90
2020/12/12 04:14:20;;;;;;;8.57;6.07;;;3.70;99.90;;;;;;5014892;28;20806;-92
2020/12/12 04:16:46;;;;;;;10.87;7.10;;;3.80;99.90;;;;;;5014828;28;20463;-87
2020/12/12 04:19:13;;;;;;;9.47;6.30;;;3.80;99.90;;;;;;5008418;28;21019;-93
2020/12/12 04:21:40;;;;;;;9.27;6.20;;;3.80;99.90;;;;;;5013705;28;20453;-88
2020/12/12 04:24:06;;;;;;;10.17;7.13;;;3.90;99.90;;;;;;5014083;28;20497;-92
2020/12/12 04:26:32;;;;;;;7.93;6.93;;;3.70;99.90;;;;;;5014854;28;20451;-89
2020/12/12 04:28:58;;;;;;;8.97;6.07;;;3.70;99.90;;;;;;5014964;28;20442;-90
2020/12/12 04:31:25;;;;;;;9.40;6.40;;;3.80;99.90;;;;;;5011773;28;20511;-87
2020/12/12 04:33:51;;;;;;;10.97;7.13;;;3.90;99.90;;;;;;5014857;28;20501;-89
2020/12/12 04:36:17;;;;;;;7.97;6.77;;;3.70;99.90;;;;;;5013638;28;20446;-90
2020/12/12 04:38:44;;;;;;;8.03;6.27;;;3.70;99.90;;;;;;5010435;28;20449;-88
2020/12/12 04:41:13;;;;;;;8.73;6.87;;;3.90;99.90;;;;;;5014685;28;20445;-88
2020/12/12 04:43:40;;;;;;;10.47;6.17;;;3.70;99.90;;;;;;5014359;28;21023;-87
2020/12/12 04:46:07;;;;;;;6.00;4.40;;;3.90;99.90;;;;;;5014502;28;20956;-87
2020/12/12 04:48:33;;;;;;;8.10;5.97;;;3.60;99.90;;;;;;5014522;28;20451;-88
2020/12/12 04:51:00;;;;;;;8.20;6.40;;;3.60;99.90;;;;;;5016227;28;20441;-87
2020/12/12 04:53:26;;;;;;;7.70;5.17;;;3.80;99.90;;;;;;5014652;28;20566;-87
2020/12/12 04:55:55;;;;;;;6.00;4.50;;;3.60;99.90;;;;;;5014250;28;20802;-89
2020/12/12 04:58:22;;;;;;;8.43;5.87;;;4.00;99.90;;;;;;5011263;28;20446;-87
2020/12/12 05:00:52;;;;;;;8.43;5.93;;;3.10;99.90;;;;;;5014037;28;20455;-88
2020/12/12 05:03:20;;;;;;;7.07;5.40;;;3.40;99.90;;;;;;5011118;28;20476;-90
2020/12/12 05:05:47;;;;;;;9.37;5.40;;;3.60;99.90;;;;;;5019435;28;20448;-86
2020/12/12 05:08:14;;;;;;;7.43;5.63;;;3.90;99.90;;;;;;5013691;28;20658;-88
2020/12/12 05:10:42;;;;;;;7.50;5.23;;;3.70;99.90;;;;;;5011346;28;20472;-87
2020/12/12 05:13:17;;;;;;;5.20;3.53;;;3.80;99.90;;;;;;5014019;28;20490;-89
2020/12/12 05:15:44;;;;;;;7.90;6.00;;;4.10;99.90;;;;;;5011913;28;20448;-88
2020/12/12 05:18:11;;;;;;;6.70;4.50;;;4.10;99.90;;;;;;5012313;28;20814;-92
2020/12/12 05:20:38;;;;;;;8.27;4.60;;;3.80;99.90;;;;;;5013110;28;20455;-91
2020/12/12 05:23:11;;;;;;;7.23;5.30;;;4.10;99.90;;;;;;5013970;28;20448;-88
2020/12/12 05:25:37;;;;;;;4.10;3.43;;;4.40;99.90;;;;;;5009525;28;20450;-87
2020/12/12 05:28:05;;;;;;;5.33;4.23;;;3.80;99.90;;;;;;5008676;28;20789;-90
2020/12/12 05:30:33;;;;;;;7.17;5.70;;;4.20;99.90;;;;;;5013904;28;20446;-87
2020/12/12 05:33:00;;;;;;;5.90;4.50;;;3.80;99.90;;;;;;5010945;28;20498;-86
2020/12/12 05:35:26;;;;;;;6.50;4.67;;;3.80;99.90;;;;;;5012736;28;20440;-88
2020/12/12 05:37:53;;;;;;;3.90;2.37;;;4.00;99.90;;;;;;5009656;28;20458;-90
2020/12/12 05:40:20;;;;;;;6.97;4.83;;;4.10;99.90;;;;;;5008418;28;20457;-87
2020/12/12 05:42:47;;;;;;;5.67;3.83;;;3.90;99.90;;;;;;5013715;28;20467;-91
2020/12/12 05:45:14;;;;;;;5.93;4.43;;;3.90;99.90;;;;;;5013672;28;20500;-89
2020/12/12 05:47:41;;;;;;;5.23;3.63;;;4.00;99.90;;;;;;5013470;28;20447;-90
2020/12/12 05:50:07;;;;;;;4.97;2.80;;;3.50;99.90;;;;;;5013621;28;20952;-87
2020/12/12 05:52:35;;;;;;;2.43;1.53;;;4.70;99.90;;;;;;5012848;28;20497;-89
2020/12/12 05:55:02;;;;;;;4.60;3.43;;;3.90;99.90;;;;;;5013324;28;20452;-88
2020/12/12 05:57:29;;;;;;;6.13;4.00;;;4.00;99.90;;;;;;5013715;28;20450;-87
2020/12/12 05:59:57;;;;;;;5.73;4.03;;;4.10;99.90;;;;;;5008695;28;20452;-87
2020/12/12 06:02:26;;;;;;;5.60;4.07;;;4.00;99.90;;;;;;5013476;28;20455;-91
2020/12/12 06:04:54;;;;;;;5.07;3.87;;;4.10;99.90;;;;;;5008675;28;20483;-88
2020/12/12 06:07:28;;;;;;;4.87;4.20;;;4.10;99.90;;;;;;5014576;28;20487;-89
2020/12/12 06:09:59;;;;;;;5.50;4.17;;;4.20;99.90;;;;;;5008140;28;20475;-88
2020/12/12 06:12:26;;;;;;;1.83;1.13;;;4.50;99.90;;;;;;5023028;28;20534;-90
2020/12/12 06:14:57;;;;;;;4.30;3.73;;;4.20;99.90;;;;;;5022393;28;20955;-89
2020/12/12 06:17:44;;;;;;;5.60;4.03;;;4.00;99.90;;;;;;5021400;28;20435;-87
2020/12/12 06:20:14;;;;;;;2.50;2.00;;;4.20;99.90;;;;;;5006424;28;20448;-87
2020/12/12 06:22:46;;;;;;;3.80;2.37;;;4.20;99.90;;;;;;5011810;28;20543;-88
2020/12/12 06:25:15;;;;;;;5.60;3.77;;;3.90;99.90;;;;;;5000181;28;20438;-89
2020/12/12 06:27:45;;;;;;;3.13;2.40;;;4.10;99.90;;;;;;5026085;28;20973;-87
2020/12/12 06:30:13;;;;;;;2.73;2.20;;;4.10;99.90;;;;;;5020749;28;20444;-89
2020/12/12 06:32:40;;;;;;;6.20;3.97;;;4.10;99.90;;;;;;5020359;28;20514;-88
2020/12/12 06:35:07;;;;;;;6.77;4.73;;;4.00;99.90;;;;;;5009933;28;20494;-90
2020/12/12 06:37:35;;;;;;;2.30;2.00;;;4.10;99.90;;;;;;5013313;28;20495;-89
2020/12/12 06:40:04;;;;;;;2.73;2.33;;;6.60;99.90;;;;;;5021123;28;20456;-89
2020/12/12 06:42:34;;;;;;;3.10;2.20;;;4.10;99.90;;;;;;5023397;28;20955;-88
2020/12/12 06:45:01;;;;;;;3.33;2.87;;;4.00;99.90;;;;;;5023303;28;20453;-87
2020/12/12 06:47:38;;;;;;;6.03;3.77;;;4.20;99.90;;;;;;5015281;28;20445;-87
2020/12/12 06:50:09;;;;;;;11.90;6.90;;;4.00;99.90;;;;;;5016557;28;20813;-91
2020/12/12 06:52:37;;;;;;;5.10;3.60;;;4.00;99.90;;;;;;5012706;28;20499;-86
2020/12/12 06:55:06;;;;;;;3.70;3.10;;;4.00;99.90;;;;;;5016239;28;20535;-89
2020/12/12 06:57:43;;;;;;;8.07;4.97;;;;;;;;;;5016574;28;20840;-87
2020/12/12 07:00:19;;;;;;;5.73;5.07;;;4.20;99.90;;;;;;5016498;28;20448;-87
2020/12/12 07:02:54;;;;;;;6.40;4.13;;;3.90;99.90;;;;;;5016497;28;20456;-86
2020/12/12 07:05:22;;;;;;;4.43;3.83;;;4.00;99.90;;;;;;4965156;28;20453;-85
2020/12/12 07:07:50;;;;;;;3.87;2.93;;;4.00;99.90;;;;;;5013723;28;20446;-88
2020/12/12 07:10:17;;;;;;;7.80;6.03;;;3.90;99.90;;;;;;5013053;28;20487;-88
2020/12/12 07:12:43;;;;;;;5.40;4.57;;;3.90;99.90;;;;;;5013092;28;20501;-87
2020/12/12 07:15:09;;;;;;;7.30;4.33;;;4.00;99.90;;;;;;5016012;28;20460;-86
2020/12/12 07:17:36;;;;;;;7.20;5.03;;;3.80;99.90;;;;;;5015897;28;20459;-89
2020/12/12 07:20:04;;;;;;;5.37;3.97;;;3.80;99.90;;;;;;5015648;28;20448;-89
2020/12/12 07:22:30;;;;;;;6.57;5.40;;;4.10;99.90;;;;;;5015666;28;20823;-87
2020/12/12 07:24:59;;;;;;;7.67;5.37;;;4.10;99.90;;;;;;5013308;28;20453;-87
2020/12/12 07:27:25;;;;;;;2.90;2.03;;;3.90;99.90;;;;;;5011300;28;20457;-87
2020/12/12 07:29:52;;;;;;;4.53;3.63;;;4.60;99.90;;;;;;5016081;28;20445;-89
2020/12/12 07:32:18;;;;;;;3.07;2.67;;;4.20;99.90;;;;;;5009897;28;20456;-87
2020/12/12 07:34:44;;;;;;;2.93;1.87;;;;;;;;;;5015596;28;20454;-87
2020/12/12 07:37:12;;;;;;;7.27;4.70;;;4.20;99.90;;;;;;5032459;28;20821;-88
2020/12/12 07:39:39;;;;;;;4.20;3.20;;;4.30;99.90;;;;;;5030860;28;20958;-88
2020/12/12 07:42:08;;;;;;;4.10;3.27;;;4.20;99.90;;;;;;5035075;28;20458;-92
2020/12/12 07:44:36;;;;;;;7.17;4.90;;;4.10;99.90;;;;;;5028653;28;20443;-91
2020/12/12 07:47:04;;;;;;;6.17;4.00;;;4.20;99.90;;;;;;5020676;28;20455;-91
2020/12/12 07:49:31;;;;;;;5.07;4.40;;;4.20;99.90;;;;;;5021803;28;20448;-91
2020/12/12 07:52:02;;;;;;;5.97;4.70;;;3.60;99.90;;;;;;5012799;28;20452;-91
2020/12/12 07:54:38;;;;;;;5.43;4.33;;;4.30;99.90;;;;;;5010501;28;20493;-92
2020/12/12 07:57:06;;;;;;;4.00;3.17;;;4.40;99.90;;;;;;5011755;28;20507;-89
2020/12/12 07:59:34;;;;;;;3.10;1.90;;;4.20;99.90;;;;;;5012542;28;20481;-88
2020/12/12 08:02:01;;;;;;;5.10;3.97;;;4.20;99.90;;;;;;5012066;28;20444;-91
2020/12/12 08:04:28;;;;;;;5.70;4.00;;;;;;;;;;5015299;28;20459;-88
2020/12/12 08:06:55;;;;;;;5.43;3.90;;;4.30;99.90;;;;;;5013897;28;20537;-88
2020/12/12 08:09:23;;;;;;;6.10;3.90;;;4.10;99.90;;;;;;5014856;28;20493;-89
2020/12/12 08:11:57;;;;;;;6.30;4.60;;;4.30;99.90;;;;;;5015596;28;20453;-88
2020/12/12 08:14:23;;;;;;;4.23;3.27;;;4.40;99.90;;;;;;5013383;28;20520;-87
2020/12/12 08:16:55;;;;;;;6.67;5.63;;;4.20;99.90;;;;;;5020623;28;20854;-88
2020/12/12 08:19:22;;;;;;;5.70;4.60;;;;;;;;;;5020504;28;20441;-93
2020/12/12 08:22:08;;;;;;;5.23;3.83;;;4.40;99.90;;;;;;5017265;28;20438;-88
2020/12/12 08:24:35;;;;;;;5.70;4.70;;;;;;;;;;5023847;28;20456;-88
2020/12/12 08:27:11;;;;;;;4.90;3.80;;;4.60;99.90;;;;;;5019524;28;20476;-93
2020/12/12 08:29:43;;;;;;;4.37;3.90;;;4.50;99.90;;;;;;5018339;28;20480;-90
2020/12/12 08:32:33;;;;;;;5.90;3.37;;;4.50;99.90;;;;;;5017759;28;20433;-88
2020/12/12 08:35:17;;;;;;;3.70;3.10;;;4.60;99.90;;;;;;5017316;28;20832;-86
2020/12/12 08:37:58;;;;;;;4.83;3.60;;;5.10;99.90;;;;;;4995030;28;20452;-89
2020/12/12 08:40:27;;;;;;;5.30;4.20;;;4.70;99.90;;;;;;5017562;28;20450;-87
2020/12/12 08:42:59;;;;;;;3.77;3.10;;;4.40;99.90;;;;;;5022479;28;20457;-87
2020/12/12 08:45:29;;;;;;;6.23;5.10;;;4.80;99.90;;;;;;5007754;28;20442;-93
2020/12/12 08:48:30;;;;;;;13.30;9.13;;;4.90;99.90;;;;;;5029858;28;20441;-92
2020/12/12 08:50:58;;;;;;;15.23;11.27;;;5.00;99.90;;;;;;5019031;28;20468;-84
2020/12/12 08:53:29;;;;;;;6.97;5.10;;;4.60;99.90;;;;;;5033545;28;20491;-86
2020/12/12 08:56:10;;;;;;;7.03;3.70;;;4.50;99.90;;;;;;5034115;28;20449;-91
2020/12/12 08:58:38;;;;;;;3.20;2.70;;;4.50;99.90;;;;;;5033651;28;20489;-87
2020/12/12 09:01:22;;;;;;;1.93;1.57;;;4.80;99.90;;;;;;5033767;28;20451;-87
2020/12/12 09:03:51;;;;;;;7.37;4.03;;;4.70;99.90;;;;;;5033588;28;20455;-89
2020/12/12 09:06:23;;;;;;;3.60;2.60;;;4.70;99.90;;;;;;5030788;28;20445;-94
2020/12/12 09:09:07;;;;;;;7.50;4.93;;;4.80;99.90;;;;;;5033982;28;20472;-91
2020/12/12 09:11:34;;;;;;;7.40;4.13;;;4.70;99.90;;;;;;5034130;28;20453;-88
2020/12/12 09:14:00;;;;;;;6.10;4.50;;;;;;;;;;5034467;28;20548;-92
2020/12/12 09:16:27;;;;;;;2.97;2.67;;;4.90;99.90;;;;;;5037633;28;20454;-91
2020/12/12 09:18:54;;;;;;;3.20;2.77;;;4.70;99.90;;;;;;5042713;28;20543;-89
2020/12/12 09:21:21;;;;;;;3.33;2.50;;;;;;;;;;5034324;28;20452;-88
2020/12/12 09:23:48;;;;;;;5.53;4.10;;;5.40;99.90;;;;;;5032366;28;20471;-91
2020/12/12 09:26:14;;;;;;;4.57;3.20;;;;;;;;;;5033441;28;20448;-90
2020/12/12 09:28:40;;;;;;;2.97;2.10;;;4.70;99.90;;;;;;5033644;28;20825;-86
2020/12/12 09:31:07;;;;;;;3.90;2.30;;;;;;;;;;5033485;28;20448;-89
2020/12/12 09:33:34;;;;;;;2.40;1.60;;;4.90;99.90;;;;;;5033776;28;20502;-86
2020/12/12 09:36:03;;;;;;;5.53;3.73;;;5.20;99.90;;;;;;5027419;28;20444;-90
2020/12/12 09:38:30;;;;;;;6.30;4.17;;;4.90;99.90;;;;;;5031386;28;20450;-88
2020/12/12 09:40:56;;;;;;;3.10;2.27;;;5.00;99.90;;;;;;5022864;28;20447;-89
2020/12/12 09:43:23;;;;;;;4.30;3.50;;;;;;;;;;5013813;28;20943;-88
2020/12/12 09:45:49;;;;;;;5.23;3.80;;;5.10;99.90;;;;;;5013505;28;20452;-88
2020/12/12 09:48:16;;;;;;;6.30;4.17;;;5.40;99.90;;;;;;5013837;28;20944;-91
2020/12/12 09:50:42;;;;;;;4.00;3.47;;;5.30;99.90;;;;;;5011266;28;20465;-86
2020/12/12 09:53:11;;;;;;;2.80;2.47;;;5.00;99.90;;;;;;5020792;28;20598;-94
2020/12/12 09:55:39;;;;;;;5.70;4.07;;;5.00;99.90;;;;;;5010594;28;20447;-86
2020/12/12 09:58:06;;;;;;;4.20;3.80;;;5.20;99.90;;;;;;5016483;28;20452;-87
2020/12/12 10:00:34;;;;;;;2.50;2.03;;;5.00;99.90;;;;;;5015882;28;20554;-86
2020/12/12 10:03:00;;;;;;;3.10;2.43;;;5.20;99.90;;;;;;5004497;28;20451;-86
2020/12/12 10:05:26;;;;;;;2.80;2.50;;;5.30;99.90;;;;;;5012235;28;20451;-87
2020/12/12 10:07:55;;;;;;;5.47;4.83;;;5.30;99.90;;;;;;5013252;28;20446;-89
2020/12/12 10:10:22;;;;;;;3.90;3.07;;;5.10;99.90;;;;;;5013240;28;20483;-86
2020/12/12 10:12:49;;;;;;;3.50;3.20;;;;;;;;;;5013259;28;20493;-89
2020/12/12 10:15:17;;;;;;;4.40;3.40;;;5.20;99.90;;;;;;5015598;28;20949;-89
2020/12/12 10:17:43;;;;;;;3.30;2.40;;;;;;;;;;5019285;28;20495;-89
2020/12/12 10:20:10;;;;;;;3.27;2.43;;;5.30;99.90;;;;;;5014701;28;20451;-88
2020/12/12 10:22:36;;;;;;;2.70;2.20;;;;;;;;;;5011173;28;20463;-88
2020/12/12 10:25:04;;;;;;;7.83;3.00;;;5.30;99.90;;;;;;5017077;28;20449;-88
2020/12/12 10:27:31;;;;;;;3.87;2.20;;;5.50;99.90;;;;;;5014702;28;20487;-88
2020/12/12 10:29:57;;;;;;;2.37;2.00;;;5.40;99.90;;;;;;5013617;28;20492;-90
2020/12/12 10:32:23;;;;;;;2.80;2.10;;;5.70;99.90;;;;;;5016653;28;20467;-89
2020/12/12 10:34:50;;;;;;;4.13;2.47;;;5.40;99.90;;;;;;5013054;28;20825;-88
2020/12/12 10:37:16;;;;;;;2.90;2.47;;;5.70;99.90;;;;;;5014014;28;20459;-86
2020/12/12 10:39:49;;;;;;;2.40;2.00;;;5.40;99.90;;;;;;5014300;28;20464;-90
2020/12/12 10:42:15;;;;;;;3.20;2.40;;;;;;;;;;5016326;28;20458;-90
2020/12/12 10:44:42;;;;;;;3.60;2.17;;;6.10;99.90;;;;;;5009024;28;20459;-87
2020/12/12 10:47:09;;;;;;;1.73;1.60;;;5.90;99.90;;;;;;5017326;28;20444;-87
2020/12/12 10:49:36;;;;;;;2.97;2.70;;;5.70;99.90;;;;;;5016451;28;20459;-87
2020/12/12 10:52:02;;;;;;;2.60;1.73;;;6.00;99.90;;;;;;5012324;28;20520;-86
2020/12/12 10:54:29;;;;;;;2.70;2.20;;;5.90;99.90;;;;;;5015755;28;20499;-87
2020/12/12 10:56:56;;;;;;;3.83;2.13;;;5.40;99.90;;;;;;5015816;28;20448;-86
2020/12/12 10:59:22;;;;;;;3.47;2.30;;;6.10;99.90;;;;;;5013427;28;20450;-87
2020/12/12 11:01:52;;;;;;;2.50;2.30;;;5.90;99.90;;;;;;5005441;28;20453;-92
2020/12/12 11:04:19;;;;;;;2.90;2.70;;;;;;;;;;4993279;28;20454;-88
2020/12/12 11:06:46;;;;;;;4.30;2.83;;;6.10;99.90;;;;;;4995296;28;20463;-90
2020/12/12 11:09:13;;;;;;;1.80;1.70;;;6.00;99.90;;;;;;4996279;28;20493;-88
2020/12/12 11:11:41;;;;;;;2.80;2.00;;;5.90;99.90;;;;;;4996118;28;20462;-85
2020/12/12 11:14:08;;;;;;;2.53;2.27;;;;;;;;;;5002090;28;20890;-87
2020/12/12 11:16:35;;;;;;;2.93;2.30;;;;;;;;;;5001474;28;20450;-86
2020/12/12 11:19:03;;;;;;;4.90;4.40;;;5.90;99.90;;;;;;4995652;28;20479;-87
2020/12/12 11:21:30;;;;;;;3.97;2.50;;;;;;;;;;4994608;28;21025;-87
2020/12/12 11:23:57;;;;;;;5.50;4.43;;;5.90;99.90;;;;;;4991702;28;20461;-86
2020/12/12 11:26:24;;;;;;;5.93;4.57;;;6.60;99.90;;;;;;4995606;28;20457;-87
2020/12/12 11:28:51;;;;;;;5.60;4.13;;;;;;;;;;4995546;28;20454;-87
2020/12/12 11:31:19;;;;;;;5.70;3.90;;;6.20;99.90;;;;;;4995637;28;20454;-84
2020/12/12 11:33:48;;;;;;;3.40;2.70;;;;;;;;;;4994999;28;20497;-84
2020/12/12 11:36:30;;;;;;;3.80;2.97;;;6.00;99.90;;;;;;4991313;28;20449;-87
2020/12/12 11:39:01;;;;;;;9.33;4.50;;;;;;;;;;4995591;28;20441;-87
2020/12/12 11:41:42;;;;;;;6.80;5.10;;;6.00;99.90;;;;;;4993267;28;20538;-88
2020/12/12 11:46:56;;;;;;;4.90;3.67;;;6.30;99.90;;;;;;4994402;28;21010;-87
2020/12/12 11:49:23;;;;;;;3.50;3.07;;;6.30;99.90;;;;;;4990969;28;20447;-87
2020/12/12 11:51:50;;;;;;;18.90;9.80;;;6.30;99.90;;;;;;4994063;28;20460;-88
2020/12/12 11:54:17;;;;;;;31.13;17.03;;;;;;;;;;4995095;28;20494;-86
2020/12/12 11:56:43;;;;;;;10.23;5.93;;;6.00;99.90;;;;;;4996855;28;20481;-88
2020/12/12 11:59:13;;;;;;;84.50;33.20;;;6.30;99.90;;;;;;4998209;28;20452;-89
2020/12/12 12:01:39;;;;;;;15.17;8.53;;;6.20;99.90;;;;;;4995751;28;20464;-87
2020/12/12 12:04:06;;;;;;;31.73;13.20;;;6.60;99.90;;;;;;4992059;28;20450;-89
2020/12/12 12:06:32;;;;;;;26.40;12.20;;;6.20;99.90;;;;;;4991511;28;20454;-89
2020/12/12 12:11:41;;;;;;;18.83;6.57;;;;;;;;;;4993882;28;20930;-91
2020/12/12 12:14:08;;;;;;;33.53;14.73;;;6.20;99.90;;;;;;4916392;29;20497;-86
2020/12/12 12:16:36;;;;;;;21.90;10.70;;;6.10;99.90;;;;;;4914557;29;20468;-90
2020/12/12 12:19:04;;;;;;;12.50;6.60;;;6.20;99.90;;;;;;4914518;29;20483;-89
2020/12/12 12:21:30;;;;;;;134.63;47.80;;;6.30;99.90;;;;;;4912841;29;20864;-89
2020/12/12 12:23:57;;;;;;;27.87;12.10;;;6.40;99.90;;;;;;4913768;29;20472;-88
2020/12/12 12:26:24;;;;;;;92.13;30.50;;;6.30;99.90;;;;;;4916590;29;20465;-87
2020/12/12 12:28:50;;;;;;;97.73;31.40;;;6.00;99.90;;;;;;4912716;29;20534;-92
2020/12/12 12:31:21;;;;;;;43.63;16.50;;;6.20;99.90;;;;;;4922813;28;20871;-90
2020/12/12 12:33:47;;;;;;;53.13;19.67;;;6.50;99.90;;;;;;4994974;28;20494;-86
2020/12/12 12:36:14;;;;;;;58.57;23.30;;;6.70;99.90;;;;;;4994489;28;20457;-90
2020/12/12 12:38:41;;;;;;;34.87;13.50;;;6.40;99.90;;;;;;4992535;28;20449;-90
2020/12/12 12:41:07;;;;;;;46.70;15.60;;;6.30;99.90;;;;;;4990936;28;20457;-87
2020/12/12 12:43:37;;;;;;;19.90;9.20;;;6.30;99.90;;;;;;4994433;28;20458;-88
2020/12/12 12:46:04;;;;;;;26.93;10.03;;;;;;;;;;4934321;29;20453;-92
2020/12/12 12:48:31;;;;;;;19.80;10.77;;;;;;;;;;4935592;29;20474;-93
2020/12/12 12:50:57;;;;;;;45.37;16.53;;;6.40;99.90;;;;;;4931947;29;20475;-90
2020/12/12 12:53:23;;;;;;;15.50;8.40;;;;;;;;;;4935412;29;20480;-95
2020/12/12 12:55:50;;;;;;;79.17;25.07;;;6.60;99.90;;;;;;4935060;29;20467;-92
2020/12/12 12:58:16;;;;;;;6.03;4.87;;;6.10;99.90;;;;;;4934982;29;20450;-91
2020/12/12 13:00:43;;;;;;;12.20;6.57;;;6.50;99.90;;;;;;4934919;29;20447;-90
2020/12/12 13:03:10;;;;;;;5.23;3.90;;;;;;;;;;4938943;28;20559;-91
2020/12/12 13:05:39;;;;;;;34.03;11.30;;;6.30;99.90;;;;;;4994292;28;20427;-89
2020/12/12 13:08:05;;;;;;;59.37;16.60;;;;;;;;;;4994316;28;20505;-84
2020/12/12 13:10:32;;;;;;;5.33;4.60;;;5.80;99.90;;;;;;4994507;28;20479;-88
2020/12/12 13:12:59;;;;;;;6.97;3.43;;;6.20;99.90;;;;;;4993830;28;20461;-87
2020/12/12 13:15:25;;;;;;;7.37;5.20;;;5.80;99.90;;;;;;4994287;28;20830;-90
2020/12/12 13:17:53;;;;;;;44.43;26.50;;;6.50;99.90;;;;;;5005983;28;20445;-91